createdAt,value
2019-01-29T00:01:35.974Z,99957.35
2019-01-29T00:04:05.247Z,99953.16
2019-01-29T00:06:34.258Z,99962.27
2019-01-29T00:09:05.309Z,99956.39
2019-01-29T00:11:34.699Z,99958.86
2019-01-29T00:14:03.864Z,99959.69
2019-01-29T00:16:32.801Z,99966.33
2019-01-29T00:19:01.860Z,99960.45
2019-01-29T00:21:30.882Z,99955.42
2019-01-29T00:24:00.286Z,99966.62
2019-01-29T00:26:29.300Z,99968.70
2019-01-29T00:28:58.364Z,99961.18
2019-01-29T00:31:27.386Z,99968.64
2019-01-29T00:33:56.457Z,99963.22
2019-01-29T00:36:25.518Z,99966.95
2019-01-29T00:38:54.618Z,99975.23
2019-01-29T00:41:23.636Z,99972.28
2019-01-29T00:43:52.660Z,99977.67
2019-01-29T00:46:21.718Z,99975.98
2019-01-29T00:48:50.749Z,99975.50
2019-01-29T00:51:19.803Z,99977.14
2019-01-29T00:53:48.818Z,99985.48
2019-01-29T00:56:17.882Z,99980.46
2019-01-29T00:58:46.905Z,99985.02
2019-01-29T01:01:15.965Z,99984.58
2019-01-29T01:03:45.051Z,99987.04
2019-01-29T01:06:14.070Z,99984.95
2019-01-29T01:08:43.094Z,99987.02
2019-01-29T01:11:12.158Z,99990.73
2019-01-29T01:13:41.544Z,99986.16
2019-01-29T01:16:10.612Z,99994.08
2019-01-29T01:18:39.635Z,99997.41
2019-01-29T01:21:08.651Z,99996.15
2019-01-29T01:23:37.710Z,99993.27
2019-01-29T01:26:06.784Z,99999.50
2019-01-29T01:28:35.800Z,99997.01
2019-01-29T01:31:04.963Z,99997.44
2019-01-29T01:33:33.986Z,99998.25
2019-01-29T01:36:03.049Z,100001.16
2019-01-29T01:38:32.126Z,100003.23
2019-01-29T01:41:01.514Z,100004.87
2019-01-29T01:43:30.556Z,99999.84
2019-01-29T01:45:59.615Z,100002.31
2019-01-29T01:48:28.643Z,100001.49
2019-01-29T01:50:57.709Z,99993.97
2019-01-29T01:53:26.809Z,99998.94
2019-01-29T01:55:56.170Z,100004.36
2019-01-29T01:58:25.190Z,100002.70
2019-01-29T02:00:54.586Z,100010.63
2019-01-29T02:03:23.645Z,99997.71
2019-01-29T02:05:52.710Z,100005.22
2019-01-29T02:08:21.790Z,100011.44
2019-01-29T02:10:50.801Z,100013.09
2019-01-29T02:13:19.861Z,100019.31
2019-01-29T02:15:48.939Z,100018.11
2019-01-29T02:18:17.973Z,100013.14
2019-01-29T02:20:47.335Z,100017.72
2019-01-29T02:23:16.409Z,100008.16
2019-01-29T02:25:45.516Z,100015.27
2019-01-29T02:28:14.562Z,100019.45
2019-01-29T02:30:43.582Z,100014.89
2019-01-29T02:33:12.661Z,100027.37
2019-01-29T02:35:41.691Z,100027.80
2019-01-29T02:38:10.729Z,100028.64
2019-01-29T02:40:39.803Z,100031.17
2019-01-29T02:43:08.859Z,100035.75
2019-01-29T02:45:37.916Z,100028.67
2019-01-29T02:48:07.072Z,100025.77
2019-01-29T02:50:36.107Z,100028.67
2019-01-29T02:53:05.288Z,100028.67
2019-01-29T02:55:34.313Z,100033.26
2019-01-29T02:58:03.381Z,100038.23
2019-01-29T03:00:32.450Z,100039.44
2019-01-29T03:03:01.473Z,100039.79
2019-01-29T03:05:30.544Z,100043.49
2019-01-29T03:07:59.560Z,100044.31
2019-01-29T03:10:28.839Z,100050.55
2019-01-29T03:12:57.897Z,100049.73
2019-01-29T03:15:29.885Z,100054.69
2019-01-29T03:17:59.106Z,100058.86
2019-01-29T03:20:28.375Z,100055.07
2019-01-29T03:22:57.401Z,100059.24
2019-01-29T03:25:26.971Z,100071.73
2019-01-29T03:27:56.002Z,100069.23
2019-01-29T03:30:25.215Z,100069.70
2019-01-29T03:32:54.430Z,100064.73
2019-01-29T03:35:23.569Z,100067.25
2019-01-29T03:37:52.641Z,100066.47
2019-01-29T03:40:26.243Z,100074.81
2019-01-29T03:42:55.386Z,100074.83
2019-01-29T03:45:24.649Z,100071.54
2019-01-29T03:47:53.687Z,100073.23
2019-01-29T03:50:23.077Z,100069.52
2019-01-29T03:52:52.191Z,100070.38
2019-01-29T03:55:21.251Z,100074.17
2019-01-29T03:57:50.651Z,100067.52
2019-01-29T04:00:22.117Z,100075.86
2019-01-29T04:02:51.152Z,100070.05
2019-01-29T04:05:22.057Z,100071.73
2019-01-29T04:07:51.241Z,100065.48
2019-01-29T04:10:20.752Z,100074.22
2019-01-29T04:12:49.835Z,100080.89
2019-01-29T04:15:19.837Z,100083.39
2019-01-29T04:17:53.388Z,100081.33
2019-01-29T04:20:22.618Z,100084.25
2019-01-29T04:22:51.644Z,100084.68
2019-01-29T04:25:23.111Z,100078.86
2019-01-29T04:27:51.534Z,100085.92
2019-01-29T04:30:21.868Z,100086.36
2019-01-29T04:32:50.885Z,100088.42
2019-01-29T04:35:19.959Z,100088.47
2019-01-29T04:37:49.014Z,100090.94
2019-01-29T04:40:19.673Z,100093.03
2019-01-29T04:42:49.039Z,100088.47
2019-01-29T04:45:19.060Z,100095.56
2019-01-29T04:47:48.095Z,100101.81
2019-01-29T04:50:19.238Z,100103.91
2019-01-29T04:52:48.309Z,100108.53
2019-01-29T04:55:17.613Z,100106.90
2019-01-29T04:57:46.670Z,100102.78
2019-01-29T05:00:23.809Z,100106.99
2019-01-29T05:02:52.880Z,100107.03
2019-01-29T05:05:25.385Z,100103.71
2019-01-29T05:07:54.413Z,100098.73
2019-01-29T05:10:23.569Z,100106.27
2019-01-29T05:12:52.652Z,100103.77
2019-01-29T05:15:23.097Z,100108.78
2019-01-29T05:17:52.145Z,100113.81
2019-01-29T05:20:22.872Z,100108.84
2019-01-29T05:22:51.911Z,100104.67
2019-01-29T05:25:21.182Z,100110.12
2019-01-29T05:27:50.310Z,100112.20
2019-01-29T05:30:21.504Z,100103.89
2019-01-29T05:32:50.698Z,100106.87
2019-01-29T05:35:19.707Z,100108.16
2019-01-29T05:37:48.768Z,100111.09
2019-01-29T05:40:19.023Z,100111.09
2019-01-29T05:42:48.155Z,100118.22
2019-01-29T05:45:18.318Z,100118.73
2019-01-29T05:47:47.464Z,100112.17
2019-01-29T05:50:16.855Z,100106.45
2019-01-29T05:52:45.923Z,100110.77
2019-01-29T05:55:15.224Z,100105.46
2019-01-29T05:57:44.386Z,100107.20
2019-01-29T06:00:18.879Z,100104.30
2019-01-29T06:02:48.638Z,100112.23
2019-01-29T06:05:18.372Z,100109.30
2019-01-29T06:07:47.379Z,100110.58
2019-01-29T06:10:16.694Z,100119.77
2019-01-29T06:12:45.807Z,100113.91
2019-01-29T06:15:16.385Z,100118.90
2019-01-29T06:17:45.469Z,100125.56
2019-01-29T06:20:19.584Z,100119.31
2019-01-29T06:22:48.607Z,100114.36
2019-01-29T06:25:17.914Z,100123.56
2019-01-29T06:27:46.938Z,100120.77
2019-01-29T06:30:16.952Z,100121.23
2019-01-29T06:32:46.453Z,100121.69
2019-01-29T06:35:16.479Z,100134.64
2019-01-29T06:37:45.891Z,100132.55
2019-01-29T06:40:17.367Z,100135.04
2019-01-29T06:42:46.548Z,100134.20
2019-01-29T06:45:16.560Z,100135.87
2019-01-29T06:47:45.962Z,100139.20
2019-01-29T06:50:19.962Z,100136.69
2019-01-29T06:52:49.236Z,100138.75
2019-01-29T06:55:19.480Z,100147.08
2019-01-29T06:57:54.906Z,100152.08
2019-01-29T07:00:27.677Z,100158.30
2019-01-29T07:02:57.110Z,100170.80
2019-01-29T07:05:26.143Z,100167.84
2019-01-29T07:07:55.214Z,100167.04
2019-01-29T07:10:24.630Z,100164.98
2019-01-29T07:12:53.707Z,100165.87
2019-01-29T07:15:41.658Z,100169.23
2019-01-29T07:18:36.346Z,100166.34
2019-01-29T07:21:08.257Z,100175.08
2019-01-29T07:23:37.289Z,100178.01
2019-01-29T07:26:06.907Z,100187.62
2019-01-29T07:28:35.936Z,100180.61
2019-01-29T07:31:05.062Z,100179.42
2019-01-29T07:33:34.134Z,100181.59
2019-01-29T07:36:03.563Z,100182.92
2019-01-29T07:38:32.582Z,100188.00
2019-01-29T07:41:01.699Z,100187.28
2019-01-29T07:43:30.714Z,100192.34
2019-01-29T07:45:59.933Z,100193.66
2019-01-29T07:48:29.014Z,100195.78
2019-01-29T07:50:58.060Z,100203.77
2019-01-29T07:53:27.149Z,100198.34
2019-01-29T07:55:56.315Z,100199.22
2019-01-29T07:58:25.381Z,100208.48
2019-01-29T08:00:54.441Z,100198.47
2019-01-29T08:03:23.760Z,100209.38
2019-01-29T08:05:52.838Z,100206.47
2019-01-29T08:08:21.846Z,100212.76
2019-01-29T08:10:50.884Z,100214.44
2019-01-29T08:13:19.945Z,100222.39
2019-01-29T08:15:49.001Z,100224.09
2019-01-29T08:18:18.023Z,100229.58
2019-01-29T08:20:47.089Z,100228.31
2019-01-29T08:23:16.301Z,100234.58
2019-01-29T08:25:47.866Z,100232.90
2019-01-29T08:28:16.079Z,100225.77
2019-01-29T08:30:45.136Z,100233.30
2019-01-29T08:33:14.156Z,100234.97
2019-01-29T08:35:43.177Z,100238.73
2019-01-29T08:38:12.233Z,100229.92
2019-01-29T08:40:41.285Z,100237.91
2019-01-29T08:43:10.405Z,100237.91
2019-01-29T08:45:39.427Z,100237.89
2019-01-29T08:48:08.492Z,100242.90
2019-01-29T08:50:37.526Z,100242.45
2019-01-29T08:53:06.641Z,100245.36
2019-01-29T08:55:35.703Z,100238.59
2019-01-29T08:58:04.722Z,100240.68
2019-01-29T09:00:33.786Z,100240.19
2019-01-29T09:03:02.809Z,100236.39
2019-01-29T09:05:31.886Z,100238.48
2019-01-29T09:08:00.897Z,100234.69
2019-01-29T09:10:29.910Z,100240.89
2019-01-29T09:12:58.992Z,100251.80
2019-01-29T09:15:28.047Z,100244.14
2019-01-29T09:17:57.122Z,100253.31
2019-01-29T09:20:26.137Z,100259.59
2019-01-29T09:22:55.789Z,100254.50
2019-01-29T09:25:24.956Z,100255.27
2019-01-29T09:27:54.112Z,100258.20
2019-01-29T09:30:23.260Z,100252.25
2019-01-29T09:32:52.279Z,100250.08
2019-01-29T09:35:21.336Z,100251.73
2019-01-29T09:37:50.354Z,100252.05
2019-01-29T09:40:20.177Z,100249.42
2019-01-29T09:42:49.424Z,100250.17
2019-01-29T09:45:19.336Z,100246.80
2019-01-29T09:47:48.402Z,100251.02
2019-01-29T09:50:19.653Z,100245.98
2019-01-29T09:52:48.725Z,100244.77
2019-01-29T09:55:18.920Z,100241.02
2019-01-29T09:57:47.929Z,100240.27
2019-01-29T10:00:42.225Z,100240.27
2019-01-29T10:03:11.323Z,100242.38
2019-01-29T10:05:41.730Z,100240.41
2019-01-29T10:08:10.814Z,100244.69
2019-01-29T10:10:39.865Z,100240.53
2019-01-29T10:13:08.929Z,100234.19
2019-01-29T10:15:38.061Z,100236.95
2019-01-29T10:18:07.145Z,100234.31
2019-01-29T10:20:36.172Z,100234.66
2019-01-29T10:23:05.308Z,100239.30
2019-01-29T10:25:37.814Z,100234.19
2019-01-29T10:28:05.129Z,100224.59
2019-01-29T10:30:34.097Z,100209.09
2019-01-29T10:33:03.114Z,100209.14
2019-01-29T10:35:32.179Z,100212.55
2019-01-29T10:38:01.229Z,100207.38
2019-01-29T10:40:30.272Z,100212.41
2019-01-29T10:42:59.426Z,100209.87
2019-01-29T10:45:29.501Z,100213.54
2019-01-29T10:47:58.547Z,100203.09
2019-01-29T10:50:28.578Z,100205.85
2019-01-29T10:52:58.039Z,100203.66
2019-01-29T10:55:28.853Z,100208.78
2019-01-29T10:57:58.006Z,100199.47
2019-01-29T11:00:30.108Z,100204.41
2019-01-29T11:02:59.230Z,100208.34
2019-01-29T11:05:28.285Z,100207.48
2019-01-29T11:07:57.326Z,100206.48
2019-01-29T11:10:26.353Z,100202.27
2019-01-29T11:12:55.394Z,100205.56
2019-01-29T11:15:27.211Z,100201.25
2019-01-29T11:17:56.554Z,100199.16
2019-01-29T11:20:25.578Z,100218.11
2019-01-29T11:22:54.648Z,100208.75
2019-01-29T11:25:28.434Z,100207.45
2019-01-29T11:27:57.425Z,100206.25
2019-01-29T11:30:28.419Z,100206.45
2019-01-29T11:32:57.694Z,100198.52
2019-01-29T11:35:26.966Z,100196.31
2019-01-29T11:37:55.977Z,100195.56
2019-01-29T11:40:26.454Z,100199.43
2019-01-29T11:42:55.521Z,100192.64
2019-01-29T11:45:27.519Z,100193.84
2019-01-29T11:47:56.569Z,100192.54
2019-01-29T11:50:25.593Z,100191.22
2019-01-29T11:52:54.639Z,100188.28
2019-01-29T11:55:26.553Z,100188.03
2019-01-29T11:57:55.567Z,100185.90
2019-01-29T12:00:33.318Z,100182.36
2019-01-29T12:03:02.330Z,100191.67
2019-01-29T12:05:31.336Z,100185.64
2019-01-29T12:08:00.395Z,100182.95
2019-01-29T12:10:29.418Z,100187.83
2019-01-29T12:12:58.474Z,100180.08
2019-01-29T12:15:27.538Z,100179.78
2019-01-29T12:17:56.598Z,100179.69
2019-01-29T12:20:25.971Z,100169.78
2019-01-29T12:22:55.052Z,100168.34
2019-01-29T12:25:24.112Z,100164.78
2019-01-29T12:27:53.182Z,100167.69
2019-01-29T12:30:22.322Z,100168.12
2019-01-29T12:32:51.511Z,100169.92
2019-01-29T12:35:20.503Z,100165.74
2019-01-29T12:37:49.547Z,100165.40
2019-01-29T12:40:18.700Z,100167.11
2019-01-29T12:42:47.874Z,100174.16
2019-01-29T12:45:17.354Z,100167.34
2019-01-29T12:47:46.709Z,100164.41
2019-01-29T12:50:20.933Z,100168.73
2019-01-29T12:52:55.973Z,100162.81
2019-01-29T12:55:25.159Z,100167.05
2019-01-29T12:57:54.165Z,100160.22
2019-01-29T13:00:25.025Z,100154.36
2019-01-29T13:02:54.373Z,100160.45
2019-01-29T13:05:24.562Z,100158.42
2019-01-29T13:07:53.620Z,100156.80
2019-01-29T13:10:22.854Z,100149.94
2019-01-29T13:12:51.915Z,100152.22
2019-01-29T13:15:24.064Z,100148.34
2019-01-29T13:17:53.218Z,100149.69
2019-01-29T13:20:22.236Z,100151.25
2019-01-29T13:22:51.612Z,100148.25
2019-01-29T13:25:20.638Z,100143.06
2019-01-29T13:27:49.692Z,100143.73
2019-01-29T13:30:24.982Z,100140.66
2019-01-29T13:32:54.200Z,100139.80
2019-01-29T13:35:25.437Z,100145.19
2019-01-29T13:37:54.522Z,100152.94
2019-01-29T13:40:23.566Z,100153.14
2019-01-29T13:42:52.584Z,100152.00
2019-01-29T13:45:21.683Z,100146.70
2019-01-29T13:47:50.693Z,100148.91
2019-01-29T13:50:23.380Z,100146.14
2019-01-29T13:52:52.461Z,100145.86
2019-01-29T13:55:21.485Z,100149.28
2019-01-29T13:57:50.546Z,100149.52
2019-01-29T14:00:28.261Z,100147.73
2019-01-29T14:02:57.413Z,100143.59
2019-01-29T14:05:26.445Z,100136.56
2019-01-29T14:07:55.497Z,100132.05
2019-01-29T14:10:24.570Z,100127.53
2019-01-29T14:12:53.738Z,100132.11
2019-01-29T14:15:42.486Z,100131.30
2019-01-29T14:18:12.330Z,100129.29
2019-01-29T14:20:41.357Z,100136.98
2019-01-29T14:23:10.550Z,100131.53
2019-01-29T14:25:39.860Z,100141.30
2019-01-29T14:28:09.129Z,100132.44
2019-01-29T14:30:38.719Z,100135.41
2019-01-29T14:33:08.566Z,100139.72
2019-01-29T14:35:37.598Z,100137.20
2019-01-29T14:38:47.953Z,100136.43
2019-01-29T14:41:18.382Z,100134.37
2019-01-29T14:43:52.842Z,100132.33
2019-01-29T14:46:21.868Z,100131.97
2019-01-29T14:48:50.948Z,100127.88
2019-01-29T14:51:20.300Z,100124.93
2019-01-29T14:53:49.286Z,100125.04
2019-01-29T14:56:18.501Z,100119.13
2019-01-29T14:58:47.574Z,100116.66
2019-01-29T15:01:16.666Z,100122.62
2019-01-29T15:03:45.681Z,100115.06
2019-01-29T15:06:14.760Z,100115.05
2019-01-29T15:08:43.774Z,100113.81
2019-01-29T15:11:13.034Z,100120.15
2019-01-29T15:13:42.101Z,100115.98
2019-01-29T15:16:17.894Z,100114.73
2019-01-29T15:18:54.417Z,100118.53
2019-01-29T15:21:23.538Z,100111.43
2019-01-29T15:23:52.488Z,100110.22
2019-01-29T15:26:21.511Z,100118.22
2019-01-29T15:28:50.570Z,100115.30
2019-01-29T15:31:19.584Z,100111.13
2019-01-29T15:33:48.926Z,100112.42
2019-01-29T15:36:17.946Z,100113.72
2019-01-29T15:38:46.992Z,100114.20
2019-01-29T15:41:16.029Z,100113.38
2019-01-29T15:43:45.093Z,100107.57
2019-01-29T15:46:14.112Z,100105.05
2019-01-29T15:48:43.177Z,100108.84
2019-01-29T15:51:12.197Z,100108.03
2019-01-29T15:53:41.244Z,100105.96
2019-01-29T15:56:10.267Z,100103.89
2019-01-29T15:58:39.331Z,100108.92
2019-01-29T16:01:08.358Z,100114.81
2019-01-29T16:03:37.435Z,100116.48
2019-01-29T16:06:06.455Z,100120.68
2019-01-29T16:08:35.505Z,100120.26
2019-01-29T16:11:04.527Z,100117.76
2019-01-29T16:13:33.594Z,100119.43
2019-01-29T16:16:02.654Z,100107.71
2019-01-29T16:18:31.704Z,100114.41
2019-01-29T16:21:00.720Z,100111.89
2019-01-29T16:23:29.796Z,100102.27
2019-01-29T16:25:58.818Z,100103.52
2019-01-29T16:28:27.998Z,100104.38
2019-01-29T16:30:57.062Z,100102.70
2019-01-29T16:33:26.138Z,100107.32
2019-01-29T16:35:55.166Z,100105.22
2019-01-29T16:38:24.169Z,100105.22
2019-01-29T16:41:00.381Z,100107.74
2019-01-29T16:43:24.034Z,100103.12
2019-01-29T16:45:53.457Z,100093.50
2019-01-29T16:48:22.476Z,100099.78
2019-01-29T16:50:51.485Z,100103.54
2019-01-29T16:53:20.552Z,100098.09
2019-01-29T16:55:49.617Z,100102.27
2019-01-29T16:58:18.642Z,100099.77
2019-01-29T17:00:47.711Z,100093.50
2019-01-29T17:03:16.978Z,100098.11
2019-01-29T17:05:45.998Z,100103.98
2019-01-29T17:08:15.068Z,100094.75
2019-01-29T17:10:44.124Z,100095.59
2019-01-29T17:13:13.412Z,100089.32
2019-01-29T17:15:42.475Z,100090.16
2019-01-29T17:18:11.771Z,100093.94
2019-01-29T17:20:41.321Z,100088.50
2019-01-29T17:23:10.777Z,100094.35
2019-01-29T17:25:39.832Z,100097.70
2019-01-29T17:28:08.919Z,100098.11
2019-01-29T17:30:40.050Z,100091.83
2019-01-29T17:33:09.840Z,100098.96
2019-01-29T17:35:40.099Z,100096.01
2019-01-29T17:38:09.183Z,100091.39
2019-01-29T17:40:38.246Z,100095.98
2019-01-29T17:43:07.666Z,100093.88
2019-01-29T17:45:39.173Z,100100.56
2019-01-29T17:48:08.420Z,100098.88
2019-01-29T17:50:38.834Z,100103.06
2019-01-29T17:53:08.546Z,100096.34
2019-01-29T17:55:39.407Z,100095.48
2019-01-29T17:58:09.025Z,100095.47
2019-01-29T18:00:39.136Z,100103.83
2019-01-29T18:03:08.515Z,100102.15
2019-01-29T18:05:37.606Z,100100.03
2019-01-29T18:08:06.824Z,100105.48
2019-01-29T18:10:35.863Z,100103.80
2019-01-29T18:13:04.936Z,100101.70
2019-01-29T18:15:34.019Z,100105.46
2019-01-29T18:18:03.005Z,100108.80
2019-01-29T18:20:32.108Z,100100.45
2019-01-29T18:23:01.197Z,100103.36
2019-01-29T18:25:30.219Z,100113.00
2019-01-29T18:28:01.421Z,100106.73
2019-01-29T18:30:32.029Z,100114.67
2019-01-29T18:33:01.015Z,100104.64
2019-01-29T18:35:30.138Z,100100.42
2019-01-29T18:37:59.145Z,100096.67
2019-01-29T18:40:31.051Z,100102.54
2019-01-29T18:43:00.104Z,100096.25
2019-01-29T18:45:29.166Z,100106.31
2019-01-29T18:47:58.217Z,100100.85
2019-01-29T18:50:27.248Z,100100.01
2019-01-29T18:52:56.294Z,100101.68
2019-01-29T18:55:25.354Z,100098.33
2019-01-29T18:57:54.389Z,100102.51
2019-01-29T19:00:24.296Z,100098.74
2019-01-29T19:02:53.385Z,100107.52
2019-01-29T19:05:27.077Z,100106.26
2019-01-29T19:07:56.142Z,100104.56
2019-01-29T19:10:25.548Z,100109.59
2019-01-29T19:12:54.622Z,100105.39
2019-01-29T19:15:25.956Z,100110.41
2019-01-29T19:17:55.165Z,100105.39
2019-01-29T19:20:25.374Z,100110.86
2019-01-29T19:22:54.451Z,100109.58
2019-01-29T19:25:25.240Z,100112.54
2019-01-29T19:27:54.293Z,100116.30
2019-01-29T19:30:31.021Z,100117.16
2019-01-29T19:33:00.081Z,100118.83
2019-01-29T19:35:29.224Z,100122.19
2019-01-29T19:37:58.277Z,100118.83
2019-01-29T19:40:27.330Z,100117.17
2019-01-29T19:42:56.376Z,100123.03
2019-01-29T19:45:30.446Z,100125.56
2019-01-29T19:48:00.606Z,100123.91
2019-01-29T19:50:30.740Z,100120.55
2019-01-29T19:53:00.015Z,100123.07
2019-01-29T19:55:29.060Z,100122.64
2019-01-29T19:58:08.386Z,100121.83
2019-01-29T20:00:34.716Z,100124.34
2019-01-29T20:03:03.973Z,100118.08
2019-01-29T20:05:32.994Z,100118.92
2019-01-29T20:08:02.065Z,100128.56
2019-01-29T20:10:31.153Z,100127.74
2019-01-29T20:13:01.220Z,100129.83
2019-01-29T20:15:30.305Z,100125.64
2019-01-29T20:17:59.321Z,100133.19
2019-01-29T20:20:33.877Z,100130.26
2019-01-29T20:23:08.175Z,100125.25
2019-01-29T20:25:33.849Z,100129.44
2019-01-29T20:28:02.926Z,100133.21
2019-01-29T20:30:33.690Z,100128.60
2019-01-29T20:33:05.235Z,100141.61
2019-01-29T20:35:33.544Z,100133.23
2019-01-29T20:38:02.581Z,100132.81
2019-01-29T20:40:31.726Z,100130.72
2019-01-29T20:43:00.781Z,100129.88
2019-01-29T20:45:29.865Z,100123.60
2019-01-29T20:47:58.898Z,100127.39
2019-01-29T20:50:33.147Z,100125.72
2019-01-29T20:53:02.308Z,100126.14
2019-01-29T20:55:31.347Z,100119.45
2019-01-29T20:58:00.378Z,100123.64
2019-01-29T21:00:31.673Z,100128.25
2019-01-29T21:03:00.746Z,100116.95
2019-01-29T21:05:29.876Z,100119.03
2019-01-29T21:08:00.637Z,100121.97
2019-01-29T21:10:29.941Z,100119.88
2019-01-29T21:12:59.058Z,100117.79
2019-01-29T21:15:37.927Z,100114.02
2019-01-29T21:17:59.309Z,100115.69
2019-01-29T21:20:30.049Z,100114.42
2019-01-29T21:22:59.113Z,100111.48
2019-01-29T21:25:28.141Z,100115.63
2019-01-29T21:27:57.238Z,100110.17
2019-01-29T21:30:31.338Z,100111.42
2019-01-29T21:33:00.432Z,100112.25
2019-01-29T21:35:29.549Z,100110.14
2019-01-29T21:37:58.665Z,100103.02
2019-01-29T21:40:27.694Z,100113.88
2019-01-29T21:42:56.941Z,100116.79
2019-01-29T21:45:27.277Z,100113.02
2019-01-29T21:47:57.930Z,100105.48
2019-01-29T21:50:28.432Z,100108.39
2019-01-29T21:52:57.458Z,100107.55
2019-01-29T21:55:26.721Z,100109.62
2019-01-29T21:57:55.793Z,100108.78
2019-01-29T22:00:36.501Z,100105.00
2019-01-29T22:03:06.469Z,100102.48
2019-01-29T22:05:35.574Z,100101.22
2019-01-29T22:08:06.093Z,100094.52
2019-01-29T22:10:35.272Z,100096.97
2019-01-29T22:13:05.032Z,100097.39
2019-01-29T22:15:34.095Z,100094.02
2019-01-29T22:18:03.172Z,100096.53
2019-01-29T22:20:32.198Z,100084.39
2019-01-29T22:23:01.624Z,100089.81
2019-01-29T22:25:30.698Z,100082.28
2019-01-29T22:27:59.729Z,100084.36
2019-01-29T22:30:30.825Z,100085.20
2019-01-29T22:33:00.006Z,100088.52
2019-01-29T22:35:29.046Z,100081.81
2019-01-29T22:37:58.413Z,100076.80
2019-01-29T22:40:28.542Z,100080.14
2019-01-29T22:42:58.574Z,100074.70
2019-01-29T22:45:27.738Z,100073.45
2019-01-29T22:47:56.817Z,100074.28
2019-01-29T22:50:28.089Z,100071.36
2019-01-29T22:52:57.157Z,100073.84
2019-01-29T22:55:26.234Z,100070.07
2019-01-29T22:57:55.297Z,100069.66
2019-01-29T23:00:55.826Z,100071.75
2019-01-29T23:03:30.477Z,100070.49
2019-01-29T23:06:37.166Z,100071.73
2019-01-29T23:09:09.869Z,100072.96
2019-01-29T23:11:38.977Z,100065.03
2019-01-29T23:14:08.980Z,100061.27
2019-01-29T23:16:38.010Z,100063.77
2019-01-29T23:19:07.590Z,100059.17
2019-01-29T23:21:36.642Z,100054.17
2019-01-29T23:24:06.419Z,100058.76
2019-01-29T23:26:35.491Z,100052.48
2019-01-29T23:29:04.647Z,100053.34
2019-01-29T23:31:33.717Z,100051.66
2019-01-29T23:34:02.878Z,100048.33
2019-01-29T23:36:31.934Z,100049.98
2019-01-29T23:39:01.011Z,100047.90
2019-01-29T23:41:29.975Z,100050.83
2019-01-29T23:43:59.090Z,100045.83
2019-01-29T23:46:28.107Z,100050.00
2019-01-29T23:48:57.577Z,100047.91
2019-01-29T23:51:26.663Z,100041.65
2019-01-29T23:53:55.741Z,100048.33
2019-01-29T23:56:24.859Z,100044.58
2019-01-29T23:58:53.929Z,100043.75
